To NAV CANADA Home Page Login to a new session Search on AWWS site Disclaimer Vers la page française équivalente Tips FAQ What's new on the site To the Forecasts and Observations / NOTAM section To "File a Flight Plan" website Publications and other links Update of the User's profile FIC Telephone Numbers My Weather Data Folder Route Weather Data Regional Weather Data Local Weather Data To the Forecasts and Observations / NOTAM section
Request Generated 09/16/2021 at 15:45:41 UTC . Weather information available at that time is displayed.


Go to a specific product

Save this request - Inactive

METAR/TAF

REGINA INTL/SK    

METAR CYQR 161500Z 27013KT 15SM FEW140 SCT250 09/01 A2974 RMK AC1CI3 SLP085 DENSITY ALT 1900FT=
METAR CYQR 161400Z 26010G15KT 15SM FEW140 BKN250 08/02 A2973 RMK AC2CI3 SLP083=
METAR CYQR 161300Z 24006KT 15SM FEW170 SCT260 04/00 A2972 RMK AC1CI2 SLP082=

TAF CYQR 161138Z 1612/1712 25008KT P6SM BKN140
BECMG 1617/1619 29020G30KT
FM162100 29022G32KT P6SM BKN060
FM170600 29015G25KT P6SM SCT120
RMK NXT FCST BY 161800Z=


GRAPHICAL FA CLOUDS & WEATHER FORECASTS
To the Product Selector
Graphical FA gfacn32      

GRAPHICAL FA ICING, TURBULENCE & FREEZING LEVEL FORECASTS
To the Product Selector
Graphical FA gfacn32      

FDTEXT Low Level FD. Temperatures are not forecast for the 3,000-foot level.
To the Product Selector
STN YQR - REGINA. SASK for use 3000 6000 9000 12000 18000
FDCN01 CWAO FCST BASED ON 161200 DATA VALID 161800 17-21 2836+01 2838-05 2736-11 2567-22
FDCN02 CWAO FCST BASED ON 161200 DATA VALID 170000 21-06 2933+00 2943-07 3041-12 2836-24
FDCN03 CWAO FCST BASED ON 161200 DATA VALID 171200 06-17 3132+01 3135-02 3035-06 2942-22



Your time UTC time
Weather data provided by Environment Canada and NAV CANADA